Time;durP1;ratioP1;P1;durP2;ratioP2;P2;SDS_P1;SDS_P2;PMS_P1;PMS_P2;Temp;Humidity;BMP_temperature;BMP_pressure;BME280_temperature;BME280_humidity;BME280_pressure;Samples;Min_cycle;Max_cycle;Signal;HPM_P1;HPM_P2
2023/08/30 00:01:28;;;;;;;4.90;4.30;;;16.40;99.90;;;;;;5013139;28;20425;-43
2023/08/30 00:03:54;;;;;;;8.30;4.20;;;16.40;99.90;;;;;;5012858;28;20459;-43
2023/08/30 00:06:21;;;;;;;5.97;3.87;;;16.20;99.90;;;;;;5011651;28;20933;-43
2023/08/30 00:08:48;;;;;;;6.73;4.17;;;16.40;99.90;;;;;;5012886;28;20404;-42
2023/08/30 00:11:15;;;;;;;5.13;4.27;;;16.40;99.90;;;;;;5013134;28;20465;-42
2023/08/30 00:13:42;;;;;;;7.80;5.03;;;16.40;99.90;;;;;;5013251;28;20458;-43
2023/08/30 00:16:10;;;;;;;5.83;4.40;;;16.40;99.90;;;;;;5012898;28;20840;-43
2023/08/30 00:18:36;;;;;;;5.57;4.23;;;16.60;99.90;;;;;;5012466;28;20441;-44
2023/08/30 00:21:03;;;;;;;6.37;4.47;;;16.40;99.90;;;;;;5012960;28;20444;-45
2023/08/30 00:23:30;;;;;;;6.33;4.43;;;16.40;99.90;;;;;;5013017;28;20859;-43
2023/08/30 00:25:56;;;;;;;6.23;4.57;;;16.30;99.90;;;;;;5016287;28;20456;-44
2023/08/30 00:28:23;;;;;;;5.23;4.73;;;16.30;99.90;;;;;;5016371;28;20420;-43
2023/08/30 00:30:54;;;;;;;5.50;4.80;;;16.30;99.90;;;;;;5015587;28;20820;-42
2023/08/30 00:33:22;;;;;;;5.90;4.30;;;16.30;99.90;;;;;;5015444;28;20813;-43
2023/08/30 00:35:56;;;;;;;5.40;4.30;;;16.30;99.90;;;;;;5031959;28;20489;-42
2023/08/30 00:38:23;;;;;;;9.23;3.87;;;16.40;99.90;;;;;;5015978;28;20423;-42
2023/08/30 00:40:49;;;;;;;6.33;4.60;;;16.30;99.90;;;;;;5016411;28;20865;-42
2023/08/30 00:43:16;;;;;;;5.67;4.37;;;16.30;99.90;;;;;;5015090;28;20804;-42
2023/08/30 00:45:42;;;;;;;5.70;4.40;;;16.30;99.90;;;;;;5015441;28;20456;-43
2023/08/30 00:48:09;;;;;;;4.90;4.40;;;16.30;99.90;;;;;;5017886;28;20446;-43
2023/08/30 00:50:38;;;;;;;6.10;4.90;;;16.40;99.90;;;;;;5026653;28;20452;-46
2023/08/30 00:53:06;;;;;;;5.10;4.47;;;16.30;99.90;;;;;;5027184;28;20931;-42
2023/08/30 00:55:33;;;;;;;5.40;4.90;;;16.00;99.90;;;;;;5023252;28;20956;-43
2023/08/30 00:58:01;;;;;;;7.20;4.57;;;16.20;99.90;;;;;;5019205;28;20864;-44
2023/08/30 01:00:29;;;;;;;5.30;4.80;;;16.20;99.90;;;;;;5015219;28;20488;-45
2023/08/30 01:02:55;;;;;;;8.13;5.23;;;16.20;99.90;;;;;;5016666;28;20432;-43
2023/08/30 01:05:23;;;;;;;7.53;5.00;;;16.20;99.90;;;;;;5014572;28;20465;-45
2023/08/30 01:07:51;;;;;;;10.43;6.70;;;15.90;99.90;;;;;;5017034;28;20434;-43
2023/08/30 01:10:18;;;;;;;5.83;5.23;;;16.20;99.90;;;;;;5016105;28;20944;-43
2023/08/30 01:12:49;;;;;;;6.13;5.00;;;16.20;99.90;;;;;;5014935;28;20451;-43
2023/08/30 01:15:20;;;;;;;7.43;4.57;;;16.30;99.90;;;;;;5014145;28;20473;-42
2023/08/30 01:17:48;;;;;;;5.53;4.57;;;16.40;99.90;;;;;;5013955;28;20455;-42
2023/08/30 01:20:18;;;;;;;5.10;4.07;;;16.20;99.90;;;;;;5015791;28;20430;-43
2023/08/30 01:22:54;;;;;;;6.90;4.70;;;16.30;99.90;;;;;;5015826;28;20945;-44
2023/08/30 01:25:34;;;;;;;4.90;4.40;;;16.30;99.90;;;;;;5016698;28;20467;-46
2023/08/30 01:28:05;;;;;;;11.00;5.10;;;16.30;99.90;;;;;;5035450;28;20452;-41
2023/08/30 01:30:33;;;;;;;10.20;4.70;;;16.30;99.90;;;;;;5016554;28;21002;-43
2023/08/30 01:33:02;;;;;;;7.07;4.93;;;16.10;99.90;;;;;;5031518;28;20907;-43
2023/08/30 01:35:32;;;;;;;8.40;5.73;;;16.30;99.90;;;;;;5014488;28;20487;-43
2023/08/30 01:38:01;;;;;;;7.30;4.70;;;16.30;99.90;;;;;;5016789;28;20437;-43
2023/08/30 01:40:29;;;;;;;5.20;4.70;;;16.30;99.90;;;;;;5017541;28;20459;-43
2023/08/30 01:42:57;;;;;;;6.03;5.23;;;16.30;99.90;;;;;;5017927;28;20459;-43
2023/08/30 01:45:26;;;;;;;4.97;4.57;;;16.50;99.90;;;;;;5021223;28;20489;-46
2023/08/30 01:47:53;;;;;;;10.40;5.33;;;16.60;99.90;;;;;;5023037;28;20403;-42
2023/08/30 01:50:21;;;;;;;5.70;4.77;;;16.30;99.90;;;;;;5024560;28;20466;-44
2023/08/30 01:52:50;;;;;;;5.43;5.00;;;16.20;99.90;;;;;;5021888;28;20423;-43
2023/08/30 01:55:21;;;;;;;5.70;5.13;;;16.00;99.90;;;;;;5022330;28;20464;-43
2023/08/30 01:57:47;;;;;;;5.70;4.80;;;16.20;99.90;;;;;;5021046;28;20919;-45
2023/08/30 02:00:15;;;;;;;5.37;4.57;;;16.20;99.90;;;;;;5021401;28;20455;-43
2023/08/30 02:02:46;;;;;;;6.53;4.77;;;16.20;99.90;;;;;;5021570;28;20425;-42
2023/08/30 02:05:13;;;;;;;5.33;4.83;;;15.90;99.90;;;;;;5021901;28;20460;-43
2023/08/30 02:07:44;;;;;;;5.23;4.50;;;16.10;99.90;;;;;;5022806;28;21006;-46
2023/08/30 02:10:15;;;;;;;5.57;5.07;;;15.90;99.90;;;;;;5023148;28;20817;-43
2023/08/30 02:12:47;;;;;;;4.90;4.40;;;16.10;99.90;;;;;;5022738;28;20905;-45
2023/08/30 02:15:15;;;;;;;4.13;3.73;;;16.00;99.90;;;;;;5021918;28;20460;-44
2023/08/30 02:17:42;;;;;;;4.63;4.20;;;16.10;99.90;;;;;;5021663;28;20467;-46
2023/08/30 02:20:11;;;;;;;4.17;3.83;;;16.00;99.90;;;;;;5017256;28;20523;-43
2023/08/30 02:22:38;;;;;;;3.90;3.60;;;16.00;99.90;;;;;;5020986;28;20453;-45
2023/08/30 02:25:07;;;;;;;5.80;4.30;;;16.10;99.90;;;;;;5024573;28;20449;-43
2023/08/30 02:27:35;;;;;;;5.27;4.60;;;16.10;99.90;;;;;;5025032;28;20441;-46
2023/08/30 02:30:02;;;;;;;6.63;4.60;;;16.10;99.90;;;;;;5024721;28;20467;-43
2023/08/30 02:32:29;;;;;;;6.00;5.00;;;16.00;99.90;;;;;;5025835;28;20441;-44
2023/08/30 02:34:57;;;;;;;5.03;4.07;;;16.00;99.90;;;;;;5024269;28;20445;-41
2023/08/30 02:37:25;;;;;;;4.47;3.80;;;16.10;99.90;;;;;;5025226;28;20466;-42
2023/08/30 02:39:52;;;;;;;3.87;3.57;;;16.00;99.90;;;;;;5025279;28;20411;-42
2023/08/30 02:42:18;;;;;;;5.00;4.47;;;15.90;99.90;;;;;;5020451;28;20821;-47
2023/08/30 02:44:46;;;;;;;4.93;4.43;;;16.00;99.90;;;;;;5024107;28;20449;-43
2023/08/30 02:47:13;;;;;;;4.13;3.70;;;16.00;99.90;;;;;;5024913;28;20416;-46
2023/08/30 02:49:39;;;;;;;4.90;4.50;;;16.00;99.90;;;;;;5024019;28;20411;-43
2023/08/30 02:52:07;;;;;;;4.30;3.90;;;16.00;99.90;;;;;;5023512;28;20547;-45
2023/08/30 02:54:35;;;;;;;7.33;4.20;;;15.90;99.90;;;;;;5020999;28;20437;-43
2023/08/30 02:57:02;;;;;;;5.10;4.60;;;15.90;99.90;;;;;;5023403;28;20459;-42
2023/08/30 02:59:28;;;;;;;5.83;4.50;;;15.90;99.90;;;;;;5023086;28;20801;-43
2023/08/30 03:01:55;;;;;;;5.67;4.80;;;15.80;99.90;;;;;;5022394;28;20464;-52
2023/08/30 03:04:22;;;;;;;5.07;4.20;;;15.80;99.90;;;;;;5024834;28;20451;-43
2023/08/30 03:06:48;;;;;;;4.63;4.13;;;15.50;99.90;;;;;;5019205;28;20441;-43
2023/08/30 03:09:15;;;;;;;5.43;4.60;;;15.70;99.90;;;;;;5021237;28;20454;-42
2023/08/30 03:11:43;;;;;;;4.90;4.27;;;15.70;99.90;;;;;;5012893;28;20442;-42
2023/08/30 03:14:09;;;;;;;4.40;4.00;;;15.90;99.90;;;;;;5013718;28;20464;-43
2023/08/30 03:16:36;;;;;;;6.83;4.57;;;15.50;99.90;;;;;;5013498;28;20448;-42
2023/08/30 03:19:03;;;;;;;5.27;4.77;;;15.80;99.90;;;;;;5012336;28;20423;-43
2023/08/30 03:21:30;;;;;;;5.57;5.07;;;15.50;99.90;;;;;;5012706;28;20532;-43
2023/08/30 03:23:57;;;;;;;5.87;4.93;;;15.50;99.90;;;;;;5012645;28;20530;-44
2023/08/30 03:26:24;;;;;;;7.40;5.27;;;15.50;99.90;;;;;;5014072;28;20860;-42
2023/08/30 03:28:52;;;;;;;5.57;4.97;;;15.80;99.90;;;;;;5011790;28;20512;-42
2023/08/30 03:31:20;;;;;;;6.63;5.90;;;15.40;99.90;;;;;;5013417;28;20410;-43
2023/08/30 03:33:47;;;;;;;5.07;4.33;;;15.60;99.90;;;;;;5013012;28;20914;-42
2023/08/30 03:36:16;;;;;;;7.53;4.83;;;15.40;99.90;;;;;;5011814;28;20455;-43
2023/08/30 03:38:43;;;;;;;5.80;5.27;;;15.40;99.90;;;;;;5013180;28;20539;-42
2023/08/30 03:41:10;;;;;;;5.13;4.57;;;15.40;99.90;;;;;;5013039;28;20918;-43
2023/08/30 03:43:37;;;;;;;6.90;4.73;;;15.30;99.90;;;;;;5012616;28;20451;-43
2023/08/30 03:46:05;;;;;;;4.97;4.57;;;15.20;99.90;;;;;;5028567;28;20489;-46
2023/08/30 03:48:32;;;;;;;5.73;5.20;;;15.30;99.90;;;;;;5012687;28;20839;-42
2023/08/30 03:50:59;;;;;;;7.67;5.60;;;15.20;99.90;;;;;;5028418;28;21218;-43
2023/08/30 03:53:27;;;;;;;6.43;5.00;;;15.30;99.90;;;;;;5011420;28;20548;-43
2023/08/30 03:55:53;;;;;;;6.30;5.00;;;15.30;99.90;;;;;;5011495;28;20845;-41
2023/08/30 03:58:20;;;;;;;5.40;4.90;;;15.30;99.90;;;;;;5012780;28;20432;-46
2023/08/30 04:00:47;;;;;;;5.50;5.00;;;15.50;99.90;;;;;;5012946;28;20436;-43
2023/08/30 04:03:16;;;;;;;7.67;5.43;;;15.30;99.90;;;;;;5012759;28;20446;-43
2023/08/30 04:05:43;;;;;;;6.67;4.40;;;15.40;99.90;;;;;;5028005;28;20423;-46
2023/08/30 04:08:10;;;;;;;7.20;6.37;;;15.30;99.90;;;;;;5012608;28;20421;-41
2023/08/30 04:10:38;;;;;;;5.57;5.17;;;15.40;99.90;;;;;;5028193;28;20459;-43
2023/08/30 04:13:05;;;;;;;6.77;6.07;;;15.40;99.90;;;;;;5012957;28;20436;-43
2023/08/30 04:15:33;;;;;;;7.20;6.50;;;15.50;99.90;;;;;;5013108;28;20475;-44
2023/08/30 04:18:00;;;;;;;8.20;6.90;;;15.30;99.90;;;;;;5012633;28;20835;-43
2023/08/30 04:20:29;;;;;;;7.13;6.10;;;15.80;99.90;;;;;;5012118;28;20437;-42
2023/08/30 04:22:56;;;;;;;9.60;5.80;;;15.40;99.90;;;;;;5011925;28;20422;-43
2023/08/30 04:25:23;;;;;;;6.23;5.73;;;15.50;99.90;;;;;;5012238;28;21011;-43
2023/08/30 04:27:50;;;;;;;6.27;5.67;;;15.40;99.90;;;;;;5013150;28;20403;-43
2023/08/30 04:30:17;;;;;;;6.90;6.20;;;15.40;99.90;;;;;;5028624;28;21004;-45
2023/08/30 04:32:44;;;;;;;5.70;5.20;;;15.50;99.90;;;;;;5012186;28;20415;-44
2023/08/30 04:35:11;;;;;;;7.90;6.60;;;15.10;99.90;;;;;;5014553;28;20531;-43
2023/08/30 04:37:39;;;;;;;6.77;6.17;;;15.60;99.90;;;;;;5013845;28;20552;-45
2023/08/30 04:40:08;;;;;;;6.70;5.93;;;15.50;99.90;;;;;;5013760;28;20857;-43
2023/08/30 04:42:35;;;;;;;7.13;6.10;;;15.50;99.90;;;;;;5012641;28;20510;-46
2023/08/30 04:45:02;;;;;;;5.83;5.33;;;15.50;99.90;;;;;;5012393;28;20889;-42
2023/08/30 04:47:30;;;;;;;9.07;5.57;;;15.60;99.90;;;;;;5012244;28;21028;-43
2023/08/30 04:49:57;;;;;;;7.23;5.80;;;15.60;99.90;;;;;;5012513;28;20476;-43
2023/08/30 04:52:24;;;;;;;7.97;7.27;;;15.60;99.90;;;;;;5012844;28;20461;-44
2023/08/30 04:54:52;;;;;;;18.40;6.83;;;16.20;99.90;;;;;;5014038;28;20444;-43
2023/08/30 04:57:19;;;;;;;7.03;6.23;;;15.60;99.90;;;;;;5015956;28;20454;-44
2023/08/30 04:59:46;;;;;;;6.77;5.83;;;15.60;99.90;;;;;;5015509;28;20452;-44
2023/08/30 05:02:14;;;;;;;12.03;8.23;;;15.50;99.90;;;;;;5012705;28;20439;-43
2023/08/30 05:04:49;;;;;;;6.47;5.87;;;15.60;99.90;;;;;;5012000;28;20468;-43
2023/08/30 05:07:15;;;;;;;5.70;5.20;;;15.60;99.90;;;;;;5011708;28;20954;-43
2023/08/30 05:09:42;;;;;;;6.30;5.70;;;15.70;99.90;;;;;;5013391;28;20461;-43
2023/08/30 05:12:11;;;;;;;6.17;5.67;;;15.70;99.90;;;;;;5013785;28;20908;-42
2023/08/30 05:14:37;;;;;;;8.07;6.37;;;15.80;99.90;;;;;;5014788;28;20497;-42
2023/08/30 05:17:04;;;;;;;6.77;5.10;;;15.90;99.90;;;;;;5015959;28;20451;-43
2023/08/30 05:19:32;;;;;;;6.73;5.73;;;16.00;99.90;;;;;;5017370;28;20745;-42
2023/08/30 05:21:58;;;;;;;7.63;6.37;;;16.10;99.90;;;;;;5016093;28;20431;-44
2023/08/30 05:24:26;;;;;;;11.67;5.87;;;16.20;99.90;;;;;;5015722;28;20839;-43
2023/08/30 05:26:53;;;;;;;9.53;5.20;;;16.30;99.90;;;;;;5015332;28;20449;-44
2023/08/30 05:29:21;;;;;;;7.50;5.50;;;16.60;99.90;;;;;;5016363;28;20455;-42
2023/08/30 05:31:48;;;;;;;6.10;5.50;;;16.60;99.90;;;;;;5022141;28;20554;-42
2023/08/30 05:34:34;;;;;;;7.00;5.77;;;16.10;99.90;;;;;;5022081;28;20502;-43
2023/08/30 05:37:09;;;;;;;9.83;5.80;;;16.60;99.90;;;;;;5021566;28;20456;-44
2023/08/30 05:39:52;;;;;;;9.50;6.20;;;16.60;99.90;;;;;;5021879;28;20494;-43
2023/08/30 05:42:19;;;;;;;10.53;6.37;;;16.80;99.90;;;;;;5023800;28;20436;-44
2023/08/30 05:44:47;;;;;;;6.97;5.40;;;16.70;99.90;;;;;;5018359;28;20468;-43
2023/08/30 05:47:15;;;;;;;6.77;5.30;;;16.60;99.90;;;;;;5034483;28;20432;-44
2023/08/30 05:49:42;;;;;;;6.10;5.50;;;16.60;99.90;;;;;;5020730;28;20492;-45
2023/08/30 05:52:08;;;;;;;6.40;5.77;;;16.60;99.90;;;;;;5022041;28;20455;-43
2023/08/30 05:54:36;;;;;;;5.73;4.87;;;16.50;99.90;;;;;;5020858;28;20899;-41
2023/08/30 05:57:03;;;;;;;5.20;4.80;;;16.60;99.90;;;;;;5019794;28;20518;-44
2023/08/30 05:59:29;;;;;;;7.73;4.90;;;16.70;99.90;;;;;;5037209;28;20429;-45
2023/08/30 06:01:58;;;;;;;8.47;5.57;;;16.40;99.90;;;;;;5022983;28;20451;-44
2023/08/30 06:04:24;;;;;;;11.40;9.00;;;16.70;99.90;;;;;;5018687;28;20500;-44
2023/08/30 06:06:51;;;;;;;7.63;6.40;;;16.60;99.90;;;;;;5015586;28;20825;-43
2023/08/30 06:09:18;;;;;;;7.67;6.43;;;16.80;99.90;;;;;;5014077;28;20432;-44
2023/08/30 06:11:44;;;;;;;5.87;5.10;;;16.80;99.90;;;;;;5015763;28;20504;-42
2023/08/30 06:14:11;;;;;;;6.97;4.80;;;16.90;99.90;;;;;;5016107;28;20461;-43
2023/08/30 06:16:37;;;;;;;6.70;4.60;;;17.00;99.90;;;;;;5015335;28;20419;-46
2023/08/30 06:19:05;;;;;;;5.10;4.30;;;16.70;99.90;;;;;;5015652;28;20442;-43
2023/08/30 06:21:32;;;;;;;7.10;4.17;;;16.90;99.90;;;;;;5016022;28;20443;-42
2023/08/30 06:23:58;;;;;;;5.00;4.47;;;17.20;99.90;;;;;;5015452;28;20451;-43
2023/08/30 06:26:25;;;;;;;7.73;5.03;;;17.20;99.90;;;;;;5017296;28;20433;-44
2023/08/30 06:28:52;;;;;;;8.50;5.67;;;17.20;99.90;;;;;;5014915;28;20501;-47
2023/08/30 06:31:18;;;;;;;7.03;4.80;;;17.60;99.90;;;;;;5014859;28;20991;-43
2023/08/30 06:33:45;;;;;;;5.30;4.43;;;17.40;99.90;;;;;;5015500;28;20428;-44
2023/08/30 06:36:17;;;;;;;4.97;3.90;;;17.30;99.90;;;;;;5013916;28;20640;-41
2023/08/30 06:38:43;;;;;;;5.27;3.60;;;17.40;99.90;;;;;;5015028;28;20854;-43
2023/08/30 06:41:10;;;;;;;6.20;4.27;;;17.40;99.90;;;;;;5014839;28;20534;-45
2023/08/30 06:43:38;;;;;;;8.87;4.77;;;17.50;99.90;;;;;;5015203;28;20578;-43
2023/08/30 06:46:05;;;;;;;6.80;4.13;;;17.60;99.90;;;;;;5016627;28;20431;-44
2023/08/30 06:48:31;;;;;;;5.07;4.53;;;17.90;99.90;;;;;;5016160;28;20481;-45
2023/08/30 06:50:59;;;;;;;5.40;4.90;;;17.70;99.90;;;;;;5016844;28;20719;-41
2023/08/30 06:53:27;;;;;;;4.53;3.73;;;17.70;99.90;;;;;;5017823;28;20435;-42
2023/08/30 06:55:58;;;;;;;6.50;4.10;;;17.80;99.90;;;;;;5016576;28;21028;-44
2023/08/30 06:58:25;;;;;;;5.03;3.80;;;18.00;99.90;;;;;;5016133;28;20479;-45
2023/08/30 07:00:51;;;;;;;9.70;3.70;;;18.00;99.90;;;;;;5017840;28;20441;-43
2023/08/30 07:03:18;;;;;;;9.33;4.73;;;18.10;99.90;;;;;;5016685;28;20885;-43
2023/08/30 07:05:47;;;;;;;4.17;3.20;;;17.90;99.90;;;;;;5016256;28;20444;-43
2023/08/30 07:08:14;;;;;;;6.93;4.70;;;18.20;99.90;;;;;;5015950;28;20451;-43
2023/08/30 07:10:42;;;;;;;6.17;3.97;;;18.20;99.90;;;;;;5017789;28;20470;-42
2023/08/30 07:13:10;;;;;;;4.87;4.13;;;18.30;99.90;;;;;;5016267;28;20443;-42
2023/08/30 07:15:37;;;;;;;11.07;6.37;;;18.20;99.90;;;;;;5016545;28;20469;-44
2023/08/30 07:18:04;;;;;;;4.73;3.50;;;18.20;99.90;;;;;;5016277;28;20563;-44
2023/08/30 07:20:30;;;;;;;3.83;3.20;;;18.40;99.90;;;;;;5019317;28;20440;-42
2023/08/30 07:22:57;;;;;;;4.13;3.63;;;18.40;99.90;;;;;;5018471;28;20437;-45
2023/08/30 07:25:24;;;;;;;4.03;3.37;;;18.40;99.90;;;;;;5017497;28;20467;-44
2023/08/30 07:27:52;;;;;;;4.40;3.67;;;18.40;99.90;;;;;;5019719;28;20434;-43
2023/08/30 07:30:18;;;;;;;3.57;3.20;;;18.40;99.90;;;;;;5018926;28;20483;-44
2023/08/30 07:32:45;;;;;;;3.40;3.10;;;18.70;99.90;;;;;;5017212;28;20473;-43
2023/08/30 07:35:12;;;;;;;8.97;3.23;;;18.90;99.90;;;;;;5018721;28;20460;-45
2023/08/30 07:37:38;;;;;;;5.90;4.13;;;19.10;99.90;;;;;;5017544;28;20487;-41
2023/08/30 07:40:07;;;;;;;5.33;2.80;;;18.90;99.90;;;;;;5018588;28;20788;-44
2023/08/30 07:42:33;;;;;;;4.77;3.43;;;19.00;99.90;;;;;;5016726;28;20448;-43
2023/08/30 07:45:01;;;;;;;3.40;3.10;;;19.00;99.90;;;;;;5016469;28;20829;-44
2023/08/30 07:47:28;;;;;;;6.23;3.63;;;19.00;99.90;;;;;;5016589;28;20537;-46
2023/08/30 07:49:54;;;;;;;4.47;2.80;;;19.10;99.90;;;;;;5014461;28;20477;-41
2023/08/30 07:52:21;;;;;;;3.07;2.77;;;19.10;99.90;;;;;;5014066;28;20434;-43
2023/08/30 07:54:48;;;;;;;3.60;2.40;;;19.10;99.90;;;;;;5014891;28;20841;-46
2023/08/30 07:57:14;;;;;;;4.60;3.03;;;19.20;99.90;;;;;;5013892;28;20536;-43
2023/08/30 07:59:41;;;;;;;3.87;3.00;;;19.20;99.90;;;;;;5013813;28;20795;-42
2023/08/30 08:02:09;;;;;;;3.43;2.30;;;19.10;99.90;;;;;;5014107;28;20432;-41
2023/08/30 08:04:36;;;;;;;3.73;2.10;;;19.10;99.90;;;;;;5015488;28;20456;-42
2023/08/30 08:07:04;;;;;;;7.90;2.60;;;19.10;99.90;;;;;;5013677;28;20433;-42
2023/08/30 08:09:31;;;;;;;4.00;2.67;;;19.10;99.90;;;;;;5014721;28;20472;-43
2023/08/30 08:11:57;;;;;;;4.80;3.17;;;19.30;99.90;;;;;;5014479;28;20441;-43
2023/08/30 08:14:24;;;;;;;5.10;3.10;;;19.10;99.90;;;;;;5013839;28;20751;-43
2023/08/30 08:16:51;;;;;;;2.80;2.50;;;19.20;99.90;;;;;;5028591;28;20545;-44
2023/08/30 08:19:20;;;;;;;5.60;2.70;;;19.10;99.90;;;;;;5013773;28;20486;-42
2023/08/30 08:21:46;;;;;;;3.87;2.70;;;19.10;99.90;;;;;;5013972;28;20457;-46
2023/08/30 08:24:13;;;;;;;4.00;2.10;;;19.30;99.90;;;;;;5013742;28;20452;-43
2023/08/30 08:26:40;;;;;;;6.10;2.83;;;19.40;99.90;;;;;;5014070;28;20515;-42
2023/08/30 08:29:06;;;;;;;2.90;2.40;;;19.50;99.90;;;;;;5016442;28;20425;-42
2023/08/30 08:31:33;;;;;;;9.53;3.37;;;19.40;99.90;;;;;;5016059;28;20449;-44
2023/08/30 08:34:10;;;;;;;9.03;3.30;;;19.30;99.90;;;;;;5015345;28;20460;-43
2023/08/30 08:36:39;;;;;;;3.50;2.60;;;19.60;99.90;;;;;;5014685;28;20437;-51
2023/08/30 08:39:05;;;;;;;3.67;2.23;;;19.40;99.90;;;;;;5013530;28;20490;-42
2023/08/30 08:41:39;;;;;;;3.40;2.47;;;19.40;99.90;;;;;;5013842;28;20935;-44
2023/08/30 08:44:06;;;;;;;2.90;2.33;;;19.50;99.90;;;;;;5014228;28;20449;-46
2023/08/30 08:46:35;;;;;;;11.47;3.60;;;19.60;99.90;;;;;;5015713;28;20446;-43
2023/08/30 08:49:06;;;;;;;3.13;2.13;;;19.80;99.90;;;;;;5018773;28;20555;-45
2023/08/30 08:51:34;;;;;;;3.70;2.50;;;19.90;99.90;;;;;;5018119;28;20443;-43
2023/08/30 08:54:04;;;;;;;4.50;2.07;;;20.00;99.90;;;;;;5016445;28;20596;-42
2023/08/30 08:56:32;;;;;;;4.30;2.87;;;20.20;99.90;;;;;;5017351;28;20435;-46
2023/08/30 08:58:59;;;;;;;3.57;2.33;;;20.40;99.90;;;;;;5015592;28;20476;-44
2023/08/30 09:01:26;;;;;;;2.40;2.13;;;20.50;99.90;;;;;;5017464;28;20412;-43
2023/08/30 09:03:52;;;;;;;2.77;2.03;;;20.70;99.90;;;;;;5017054;28;20458;-43
2023/08/30 09:06:19;;;;;;;3.40;2.13;;;20.80;99.90;;;;;;5015458;28;20921;-42
2023/08/30 09:08:46;;;;;;;8.73;2.53;;;20.80;99.90;;;;;;5016183;28;20434;-44
2023/08/30 09:11:14;;;;;;;3.53;2.17;;;20.80;99.90;;;;;;5016822;28;20447;-42
2023/08/30 09:13:40;;;;;;;7.87;2.07;;;20.90;99.90;;;;;;5016627;28;20990;-42
2023/08/30 09:16:13;;;;;;;3.40;2.10;;;20.80;99.60;;;;;;5016257;28;20813;-44
2023/08/30 09:18:40;;;;;;;4.80;2.10;;;20.80;99.70;;;;;;5015906;28;20522;-47
2023/08/30 09:21:07;;;;;;;3.13;2.10;;;20.90;99.90;;;;;;5016636;28;20442;-43
2023/08/30 09:23:34;;;;;;;4.63;2.10;;;21.00;99.70;;;;;;5016510;28;20522;-43
2023/08/30 09:26:02;;;;;;;3.43;2.47;;;21.10;99.80;;;;;;5016504;28;20432;-42
2023/08/30 09:28:31;;;;;;;3.90;2.37;;;21.10;99.80;;;;;;5016409;28;20493;-44
2023/08/30 09:30:59;;;;;;;4.20;2.10;;;21.20;99.70;;;;;;5016918;28;20554;-43
2023/08/30 09:33:31;;;;;;;2.73;2.53;;;21.10;98.90;;;;;;5016337;28;20862;-43
2023/08/30 09:35:58;;;;;;;3.30;1.90;;;21.10;99.40;;;;;;5016287;28;20440;-43
2023/08/30 09:38:25;;;;;;;3.73;2.60;;;21.10;99.40;;;;;;5014177;28;20530;-43
2023/08/30 09:40:52;;;;;;;4.23;2.50;;;22.40;99.90;;;;;;5016404;28;20455;-42
2023/08/30 09:43:21;;;;;;;3.27;2.00;;;20.90;98.60;;;;;;5016132;28;20444;-42
2023/08/30 09:45:50;;;;;;;7.93;2.63;;;21.00;99.00;;;;;;5016439;28;20436;-42
2023/08/30 09:48:17;;;;;;;4.60;2.37;;;20.90;99.00;;;;;;5016927;28;20440;-41
2023/08/30 09:50:47;;;;;;;4.73;2.70;;;21.00;99.20;;;;;;5017088;28;20434;-43
2023/08/30 09:53:17;;;;;;;3.70;2.83;;;20.70;98.90;;;;;;5016605;28;20448;-41
2023/08/30 09:55:44;;;;;;;7.63;2.50;;;21.00;99.40;;;;;;5014156;28;20448;-43
2023/08/30 09:58:11;;;;;;;6.70;3.10;;;20.60;99.20;;;;;;5015323;28;20474;-46
2023/08/30 10:00:38;;;;;;;5.50;2.47;;;20.50;99.00;;;;;;5015588;28;20438;-43
2023/08/30 10:03:07;;;;;;;3.03;2.20;;;20.50;99.10;;;;;;5015616;28;20798;-43
2023/08/30 10:05:35;;;;;;;4.10;2.00;;;20.60;99.40;;;;;;5015818;28;20435;-43
2023/08/30 10:08:03;;;;;;;3.13;1.77;;;20.60;99.00;;;;;;5015045;28;20765;-43
2023/08/30 10:10:31;;;;;;;5.00;2.00;;;20.60;98.60;;;;;;5017076;28;20452;-42
2023/08/30 10:12:59;;;;;;;4.20;1.63;;;20.60;97.90;;;;;;5017276;28;20458;-41
2023/08/30 10:15:28;;;;;;;5.20;2.70;;;20.50;97.30;;;;;;5015810;28;20427;-46
2023/08/30 10:17:58;;;;;;;4.43;1.80;;;20.60;97.10;;;;;;5015113;28;20784;-42
2023/08/30 10:20:28;;;;;;;2.10;1.30;;;20.90;97.60;;;;;;5015520;28;20526;-41
2023/08/30 10:22:56;;;;;;;6.63;1.60;;;20.70;97.20;;;;;;5015301;28;20791;-41
2023/08/30 10:25:25;;;;;;;5.33;2.27;;;20.70;96.90;;;;;;5015716;28;20456;-43
2023/08/30 10:27:53;;;;;;;6.37;2.20;;;20.80;96.90;;;;;;5015763;28;20442;-42
2023/08/30 10:30:22;;;;;;;3.40;1.97;;;20.80;97.10;;;;;;5017157;28;20951;-45
2023/08/30 10:32:49;;;;;;;3.17;2.13;;;20.90;97.20;;;;;;5016122;28;20436;-42
2023/08/30 10:35:18;;;;;;;5.93;3.03;;;20.90;97.20;;;;;;5014978;28;20455;-43
2023/08/30 10:37:56;;;;;;;2.93;1.60;;;20.90;96.90;;;;;;5014365;28;20463;-42
2023/08/30 10:40:22;;;;;;;2.67;1.80;;;20.80;96.70;;;;;;5013491;28;20972;-43
2023/08/30 10:42:59;;;;;;;3.70;1.90;;;20.70;96.90;;;;;;5014329;28;20441;-42
2023/08/30 10:45:26;;;;;;;3.17;1.73;;;20.80;96.70;;;;;;5013952;28;20474;-43
2023/08/30 10:47:56;;;;;;;4.30;2.60;;;20.80;96.80;;;;;;5014748;28;20414;-42
2023/08/30 10:50:29;;;;;;;2.87;1.90;;;20.90;96.60;;;;;;5014758;28;20452;-43
2023/08/30 10:52:57;;;;;;;4.00;3.20;;;21.00;96.50;;;;;;5015903;28;20431;-42
2023/08/30 10:55:24;;;;;;;4.40;2.20;;;21.10;96.60;;;;;;5015588;28;20470;-42
2023/08/30 10:58:00;;;;;;;2.50;1.77;;;22.90;97.60;;;;;;5012708;28;20914;-43
2023/08/30 11:00:29;;;;;;;6.30;2.43;;;21.50;96.70;;;;;;5015141;28;20482;-47
2023/08/30 11:02:56;;;;;;;2.77;1.60;;;21.60;96.50;;;;;;5014227;28;20435;-43
2023/08/30 11:05:24;;;;;;;5.27;2.60;;;21.70;96.00;;;;;;5014868;28;20465;-45
2023/08/30 11:07:51;;;;;;;7.00;2.37;;;21.80;96.00;;;;;;5014536;28;20957;-44
2023/08/30 11:10:20;;;;;;;3.60;2.20;;;22.00;95.90;;;;;;5013803;28;20442;-43
2023/08/30 11:12:49;;;;;;;6.10;1.77;;;22.10;95.30;;;;;;5015122;28;20532;-44
2023/08/30 11:15:16;;;;;;;7.50;3.67;;;22.30;95.10;;;;;;5015085;28;20912;-42
2023/08/30 11:17:43;;;;;;;3.83;2.57;;;22.30;94.70;;;;;;5012618;28;20465;-46
2023/08/30 11:20:11;;;;;;;6.03;1.93;;;22.40;94.80;;;;;;5014187;28;20478;-42
2023/08/30 11:22:38;;;;;;;3.30;1.90;;;22.50;94.40;;;;;;5014382;28;20434;-43
2023/08/30 11:25:06;;;;;;;3.03;2.10;;;22.50;94.20;;;;;;5014461;28;20462;-45
2023/08/30 11:27:33;;;;;;;3.80;2.30;;;22.50;93.80;;;;;;5013920;28;20442;-42
2023/08/30 11:30:02;;;;;;;3.97;2.50;;;22.30;93.30;;;;;;5014713;28;20438;-44
2023/08/30 11:32:28;;;;;;;5.40;2.37;;;22.40;93.30;;;;;;5013965;28;20435;-42
2023/08/30 11:34:58;;;;;;;3.20;2.20;;;22.40;93.00;;;;;;5014259;28;20457;-42
2023/08/30 11:37:27;;;;;;;3.67;2.30;;;22.40;92.80;;;;;;5013434;28;20435;-42
2023/08/30 11:39:55;;;;;;;2.77;2.43;;;22.30;92.30;;;;;;5013993;28;20576;-43
2023/08/30 11:42:22;;;;;;;2.10;1.63;;;22.30;92.60;;;;;;5015189;28;20570;-43
2023/08/30 11:44:51;;;;;;;4.13;1.80;;;22.00;92.40;;;;;;5014356;28;20474;-42
2023/08/30 11:47:21;;;;;;;5.47;2.77;;;22.30;92.50;;;;;;5013846;28;20438;-44
2023/08/30 11:49:49;;;;;;;2.40;1.73;;;22.30;92.60;;;;;;5014615;28;20433;-45
2023/08/30 11:52:16;;;;;;;3.07;2.40;;;22.30;92.60;;;;;;5014882;28;20488;-43
2023/08/30 11:54:43;;;;;;;5.70;2.13;;;22.30;92.60;;;;;;5014728;28;20465;-44
2023/08/30 11:57:10;;;;;;;4.60;2.27;;;22.20;92.50;;;;;;5013409;28;20429;-44
2023/08/30 11:59:37;;;;;;;3.83;1.97;;;22.20;92.30;;;;;;5013287;28;20506;-42
2023/08/30 12:02:05;;;;;;;2.60;1.93;;;22.20;92.30;;;;;;5016444;28;20443;-43
2023/08/30 12:04:32;;;;;;;3.03;1.80;;;22.30;92.60;;;;;;5013830;28;20997;-46
2023/08/30 12:06:59;;;;;;;4.63;2.13;;;22.50;92.70;;;;;;5012838;28;20534;-45
2023/08/30 12:09:31;;;;;;;2.90;1.70;;;22.60;92.30;;;;;;5012393;28;20435;-46
2023/08/30 12:12:06;;;;;;;6.73;2.40;;;20.60;90.80;;;;;;5012363;28;20447;-45
2023/08/30 12:14:36;;;;;;;4.73;2.17;;;23.00;91.70;;;;;;5013100;28;20466;-45
2023/08/30 12:17:03;;;;;;;4.73;1.90;;;22.90;91.50;;;;;;5012457;28;20966;-45
2023/08/30 12:19:32;;;;;;;8.37;2.00;;;23.00;91.40;;;;;;5012762;28;20495;-46
2023/08/30 12:22:05;;;;;;;3.53;1.73;;;22.90;90.40;;;;;;5015281;28;20458;-46
2023/08/30 12:24:42;;;;;;;4.87;2.50;;;23.00;90.90;;;;;;5016464;28;20458;-46
2023/08/30 12:27:09;;;;;;;3.00;2.20;;;23.10;91.20;;;;;;5015655;28;20435;-45
2023/08/30 12:29:35;;;;;;;6.43;2.30;;;23.10;91.40;;;;;;5016119;28;20430;-44
2023/08/30 12:32:02;;;;;;;3.00;1.70;;;23.20;91.30;;;;;;5017478;28;20434;-45
2023/08/30 12:34:30;;;;;;;3.93;1.87;;;23.20;91.10;;;;;;5016316;28;20526;-45
2023/08/30 12:36:57;;;;;;;4.67;2.20;;;23.30;91.10;;;;;;5016522;28;20440;-47
2023/08/30 12:39:23;;;;;;;2.40;1.90;;;23.20;90.40;;;;;;5016681;28;20492;-47
2023/08/30 12:41:50;;;;;;;3.07;2.03;;;23.30;90.30;;;;;;5016618;28;20405;-47
2023/08/30 12:44:17;;;;;;;5.83;2.20;;;23.40;90.30;;;;;;5016212;28;20578;-46
2023/08/30 12:46:44;;;;;;;4.80;2.23;;;23.40;90.50;;;;;;5016230;28;20440;-44
2023/08/30 12:49:10;;;;;;;2.57;2.10;;;23.40;90.40;;;;;;5017078;28;20937;-45